Aviation Digital Data Service (ADDS)

Output produced by METARs form (1850 UTC 28 August 2016)
found at http://www.aviationweather.gov/adds/metars/
 
KDEN 281729Z 2818/2924 01008KT P6SM FEW090 SCT140 BKN220 
     FM281900 03008KT P6SM SCT120 BKN200 
     FM282200 15008KT P6SM VCSH SCT090 BKN140 
     TEMPO 2823/2903 VRB15G30KT -TSRA BKN070CB 
     FM290300 25010KT P6SM SCT090 BKN140 
     FM290600 20010KT P6SM FEW090 BKN150 
     FM291300 VRB05KT P6SM BKN150 
     FM291800 06009KT P6SM VCSH FEW090 BKN120